KLAX

Los Angeles International Airport

Los Angeles, California, USA
METAR KLAX 170153Z 30006KT 10SM FEW025 16/11 A2974 RMK AO2 SLP069 T01610111
Observed Flight Rules
Dec-17 @ 01:53 UTC (38 minutes ago) Visual Flight Rules
Wind Visibility Clouds
300° at 6 knots 10 miles
  • Few at 2,500' AGL
Temperatures Readings
Current 16°C / 61°F
Dewpoint 11°C / 52°F
Humidity 72%
Altimeter 29.74" Hg
Pressure 1006.9 hPa
Elevation 46
METAR KLAX 170153Z 30006KT 10SM FEW025 16/11 A2974 RMK AO2 SLP069 T01610111
Observed Flight Rules
Dec-17 @ 01:53 UTC
(38 minutes ago)
VFR
Wind Visibility
300° at 6 knots 10 miles
Clouds
  • Few at 2,500' AGL
Temperature Dewpoint
16°C / 61°F 11°C / 52°F
Humidity Altimeter Pressure
72% 29.74" Hg 1006.9 hPa